createdAt,value
2022-09-18T11:25:13.323Z,99605.34
2022-09-18T11:27:49.713Z,99594.88
2022-09-18T11:30:27.410Z,99601.38
2022-09-18T11:32:58.775Z,99598.88
2022-09-18T11:35:27.160Z,99612.59
2022-09-18T11:37:56.647Z,99605.22
2022-09-18T11:40:26.299Z,99598.00
2022-09-18T11:42:54.455Z,99591.59
2022-09-18T11:45:41.851Z,99587.41
2022-09-18T11:48:17.968Z,99599.06
2022-09-18T11:50:45.725Z,99587.22
2022-09-18T11:53:24.470Z,99585.78
2022-09-18T11:55:55.671Z,99589.38
2022-09-18T11:58:28.508Z,99606.34
2022-09-18T12:01:12.917Z,99598.84
2022-09-18T12:03:50.206Z,99608.25
2022-09-18T12:06:23.461Z,99599.28
2022-09-18T12:08:50.086Z,99596.78
2022-09-18T12:11:38.727Z,99603.50
2022-09-18T12:14:21.041Z,99601.59
2022-09-18T12:17:20.218Z,99592.13
2022-09-18T12:19:54.384Z,99570.72
2022-09-18T12:22:27.400Z,99576.97
2022-09-18T12:24:55.001Z,99572.44
2022-09-18T12:27:47.013Z,99566.59
2022-09-18T12:30:16.545Z,99567.75
2022-09-18T12:33:06.424Z,99559.19
2022-09-18T12:35:43.293Z,99556.44
2022-09-18T12:38:25.764Z,99579.09
2022-09-18T12:41:00.871Z,99560.59
2022-09-18T12:43:27.673Z,99608.84
2022-09-18T12:46:10.726Z,99608.91
2022-09-18T12:48:56.463Z,99583.44
2022-09-18T12:51:43.475Z,99596.63
2022-09-18T12:54:16.666Z,99580.66
2022-09-18T12:56:55.710Z,99574.78
2022-09-18T12:59:22.639Z,99565.63
2022-09-18T13:02:03.724Z,99573.72
2022-09-18T13:04:37.542Z,99554.28
2022-09-18T13:07:07.558Z,99585.06
2022-09-18T13:09:39.282Z,99566.66
2022-09-18T13:12:12.818Z,99564.81
2022-09-18T13:14:43.166Z,99567.41
2022-09-18T13:17:16.183Z,99556.09
2022-09-18T13:19:49.562Z,99552.28
2022-09-18T13:22:18.558Z,99562.78
2022-09-18T13:24:46.701Z,99547.63
2022-09-18T13:27:16.262Z,99552.38
2022-09-18T13:29:54.182Z,99541.91
2022-09-18T13:32:22.722Z,99545.91
2022-09-18T13:34:56.994Z,99545.38
2022-09-18T13:37:25.156Z,99544.13
2022-09-18T13:40:09.859Z,99534.25
2022-09-18T13:42:40.471Z,99547.59
2022-09-18T13:45:17.632Z,99528.50
2022-09-18T13:48:10.630Z,99531.59
2022-09-18T13:50:38.207Z,99539.91
2022-09-18T13:53:05.510Z,99544.75
2022-09-18T13:55:37.001Z,99549.47
2022-09-18T13:58:22.742Z,99553.25
2022-09-18T14:00:49.769Z,99544.66
2022-09-18T14:03:16.631Z,99547.41
2022-09-18T14:05:44.197Z,99535.50
2022-09-18T14:08:20.233Z,99539.88
2022-09-18T14:11:04.997Z,99541.69
2022-09-18T14:13:38.259Z,99549.25
2022-09-18T14:16:06.384Z,99540.44
2022-09-18T14:18:48.486Z,99536.13
2022-09-18T14:21:18.114Z,99543.19
2022-09-18T14:23:45.697Z,99535.75
2022-09-18T14:26:30.713Z,99539.03
2022-09-18T14:29:13.331Z,99543.91
2022-09-18T14:31:50.581Z,99543.84
2022-09-18T14:34:21.497Z,99550.22
2022-09-18T14:36:49.518Z,99546.03
2022-09-18T14:39:26.814Z,99546.31
2022-09-18T14:41:55.264Z,99541.53
2022-09-18T14:44:23.113Z,99535.84
2022-09-18T14:46:57.547Z,99531.56
2022-09-18T14:49:51.254Z,99533.72
2022-09-18T14:52:25.785Z,99538.69
2022-09-18T14:54:53.875Z,99536.31
2022-09-18T14:57:26.797Z,99535.94
2022-09-18T14:59:56.667Z,99542.44
2022-09-18T15:02:34.397Z,99548.16
2022-09-18T15:05:03.395Z,99548.56
2022-09-18T15:07:30.818Z,99544.25
2022-09-18T15:10:00.420Z,99541.72
2022-09-18T15:12:30.834Z,99549.72
2022-09-18T15:14:59.790Z,99534.06
2022-09-18T15:17:28.067Z,99539.91
2022-09-18T15:19:56.351Z,99540.06
2022-09-18T15:22:23.689Z,99534.09
2022-09-18T15:24:50.906Z,99540.72
2022-09-18T15:27:18.783Z,99525.03
2022-09-18T15:29:54.558Z,99531.75
2022-09-18T15:32:26.702Z,99533.31
2022-09-18T15:34:53.971Z,99531.03
2022-09-18T15:37:23.385Z,99533.44
2022-09-18T15:40:05.192Z,99538.00
2022-09-18T15:42:34.992Z,99524.97
2022-09-18T15:45:02.096Z,99524.72
2022-09-18T15:47:28.852Z,99531.59
2022-09-18T15:49:56.140Z,99534.16
2022-09-18T15:52:36.208Z,99536.84
2022-09-18T15:55:14.810Z,99539.31
2022-09-18T15:58:04.390Z,99533.56
2022-09-18T16:00:33.446Z,99533.50
2022-09-18T16:03:01.690Z,99530.94
2022-09-18T16:05:30.450Z,99537.69
2022-09-18T16:08:01.748Z,99530.88
2022-09-18T16:10:35.040Z,99524.75
2022-09-18T16:13:02.867Z,99534.28
2022-09-18T16:15:29.903Z,99529.38
2022-09-18T16:18:12.027Z,99533.69
2022-09-18T16:20:40.843Z,99530.31
2022-09-18T16:23:16.755Z,99537.19
2022-09-18T16:25:44.174Z,99531.47
2022-09-18T16:28:23.346Z,99540.38
2022-09-18T16:30:50.448Z,99535.63
2022-09-18T16:33:20.729Z,99541.34
2022-09-18T16:35:54.570Z,99540.38
2022-09-18T16:38:21.430Z,99537.09
2022-09-18T16:40:48.812Z,99538.41
2022-09-18T16:43:16.414Z,99542.91
2022-09-18T16:45:44.152Z,99541.47
2022-09-18T16:48:11.882Z,99548.03
2022-09-18T16:50:39.416Z,99541.84
2022-09-18T16:53:06.660Z,99544.81
2022-09-18T16:55:33.893Z,99554.06
2022-09-18T16:58:01.331Z,99565.16
2022-09-18T17:00:28.321Z,99562.06
2022-09-18T17:02:57.203Z,99557.00
2022-09-18T17:05:24.368Z,99566.41
2022-09-18T17:07:51.675Z,99559.31
2022-09-18T17:10:18.810Z,99559.13
2022-09-18T17:12:47.203Z,99563.50
2022-09-18T17:15:16.185Z,99565.59
2022-09-18T17:17:46.089Z,99559.13
2022-09-18T17:20:18.254Z,99565.38
2022-09-18T17:22:46.253Z,99563.06
2022-09-18T17:25:14.540Z,99550.09
2022-09-18T17:27:43.930Z,99556.16
2022-09-18T17:30:12.219Z,99561.31
2022-09-18T17:32:39.421Z,99562.28
2022-09-18T17:35:07.144Z,99561.25
2022-09-18T17:37:34.412Z,99558.69
2022-09-18T17:40:02.536Z,99566.81
2022-09-18T17:42:29.554Z,99579.31
2022-09-18T17:44:58.941Z,99573.25
2022-09-18T17:47:26.099Z,99586.13
2022-09-18T17:49:53.372Z,99588.78
2022-09-18T17:52:21.353Z,99587.88
2022-09-18T17:54:48.773Z,99577.25
2022-09-18T17:57:15.984Z,99578.88
2022-09-18T17:59:44.609Z,99584.50
2022-09-18T18:02:12.823Z,99593.81
2022-09-18T18:04:39.804Z,99589.38
2022-09-18T18:07:06.986Z,99592.94
2022-09-18T18:09:35.606Z,99590.41
2022-09-18T18:12:02.615Z,99592.88
2022-09-18T18:14:31.501Z,99590.34
2022-09-18T18:17:01.018Z,99588.69
2022-09-18T18:19:28.150Z,99583.66
2022-09-18T18:21:55.159Z,99591.59
2022-09-18T18:24:22.585Z,99594.25
2022-09-18T18:26:50.609Z,99596.06
2022-09-18T18:29:18.563Z,99596.72
2022-09-18T18:31:48.436Z,99600.44
2022-09-18T18:34:22.796Z,99600.06
2022-09-18T18:36:51.035Z,99609.34
2022-09-18T18:39:20.642Z,99613.09
2022-09-18T18:41:47.716Z,99619.72
2022-09-18T18:44:14.891Z,99618.06
2022-09-18T18:46:43.782Z,99625.03
2022-09-18T18:49:12.528Z,99631.63
2022-09-18T18:51:44.206Z,99624.25
2022-09-18T18:54:14.682Z,99623.72
2022-09-18T18:56:42.495Z,99624.31
2022-09-18T18:59:12.073Z,99619.06
2022-09-18T19:01:40.065Z,99624.13
2022-09-18T19:04:13.562Z,99625.06
2022-09-18T19:06:42.538Z,99616.88
2022-09-18T19:09:30.056Z,99624.63
2022-09-18T19:11:58.071Z,99625.59
2022-09-18T19:14:26.545Z,99619.13
2022-09-18T19:16:54.468Z,99610.09
2022-09-18T19:19:22.413Z,99625.59
2022-09-18T19:21:50.065Z,99619.34
2022-09-18T19:24:18.955Z,99622.69
2022-09-18T19:26:46.518Z,99623.09
2022-09-18T19:29:15.231Z,99631.97
2022-09-18T19:31:43.417Z,99637.47
2022-09-18T19:34:14.470Z,99645.34
2022-09-18T19:36:41.564Z,99644.94
2022-09-18T19:39:10.982Z,99644.50
2022-09-18T19:41:50.096Z,99647.47
2022-09-18T19:44:22.086Z,99653.38
2022-09-18T19:46:49.523Z,99656.53
2022-09-18T19:49:18.545Z,99658.19
2022-09-18T19:51:46.233Z,99662.31
2022-09-18T19:54:13.825Z,99656.91
2022-09-18T19:56:50.449Z,99661.00
2022-09-18T19:59:17.559Z,99659.13
2022-09-18T20:01:44.709Z,99657.44
2022-09-18T20:04:11.675Z,99671.19
2022-09-18T20:06:40.737Z,99669.13
2022-09-18T20:09:07.633Z,99666.59
2022-09-18T20:11:35.434Z,99653.25
2022-09-18T20:14:02.275Z,99644.31
2022-09-18T20:16:29.165Z,99639.09
2022-09-18T20:18:56.186Z,99628.41
2022-09-18T20:21:24.356Z,99627.41
2022-09-18T20:23:55.533Z,99619.66
2022-09-18T20:26:22.334Z,99613.22
2022-09-18T20:28:49.190Z,99604.63
2022-09-18T20:31:17.234Z,99596.06
2022-09-18T20:33:44.103Z,99598.78
2022-09-18T20:36:11.816Z,99604.09
2022-09-18T20:38:40.292Z,99601.19
2022-09-18T20:41:09.212Z,99601.94
2022-09-18T20:43:36.551Z,99597.16
2022-09-18T20:46:05.638Z,99585.50
2022-09-18T20:48:33.574Z,99597.34
2022-09-18T20:51:00.913Z,99605.72
2022-09-18T20:53:28.323Z,99616.28
2022-09-18T20:55:58.635Z,99618.81
2022-09-18T20:58:25.807Z,99619.84
2022-09-18T21:00:54.432Z,99632.34
2022-09-18T21:03:21.425Z,99631.50
2022-09-18T21:05:53.008Z,99629.16
2022-09-18T21:08:30.159Z,99628.31
2022-09-18T21:10:56.982Z,99627.66
2022-09-18T21:13:23.756Z,99631.19
2022-09-18T21:15:50.624Z,99629.31
2022-09-18T21:18:17.812Z,99622.63
2022-09-18T21:20:44.688Z,99625.88
2022-09-18T21:23:30.914Z,99615.81
2022-09-18T21:25:57.814Z,99624.97
2022-09-18T21:28:24.901Z,99632.22
2022-09-18T21:30:51.817Z,99636.69
2022-09-18T21:33:18.763Z,99639.19
2022-09-18T21:35:55.045Z,99639.00
2022-09-18T21:38:21.855Z,99624.97
2022-09-18T21:40:49.110Z,99623.25
2022-09-18T21:43:17.437Z,99619.97
2022-09-18T21:45:44.417Z,99623.50
2022-09-18T21:48:13.126Z,99615.78
2022-09-18T21:50:40.090Z,99614.28
2022-09-18T21:53:07.059Z,99621.91
2022-09-18T21:55:37.819Z,99612.78
2022-09-18T21:58:05.854Z,99615.97
2022-09-18T22:00:33.304Z,99617.34
2022-09-18T22:03:00.202Z,99615.84
2022-09-18T22:05:29.678Z,99615.22
2022-09-18T22:07:57.404Z,99614.25
2022-09-18T22:10:24.525Z,99611.75
2022-09-18T22:12:52.360Z,99603.81
2022-09-18T22:15:19.235Z,99601.97
2022-09-18T22:17:46.006Z,99601.13
2022-09-18T22:20:13.280Z,99588.78
2022-09-18T22:22:40.203Z,99582.84
2022-09-18T22:25:07.097Z,99588.06
2022-09-18T22:27:33.975Z,99582.66
2022-09-18T22:30:00.840Z,99574.00
2022-09-18T22:32:27.966Z,99569.78
2022-09-18T22:34:54.832Z,99566.75
2022-09-18T22:37:21.927Z,99563.19
2022-09-18T22:39:48.768Z,99563.00
2022-09-18T22:42:16.112Z,99567.69
2022-09-18T22:44:43.099Z,99563.28
2022-09-18T22:47:09.947Z,99567.69
2022-09-18T22:49:36.791Z,99570.84
2022-09-18T22:52:03.693Z,99576.63
2022-09-18T22:54:30.553Z,99595.19
2022-09-18T22:56:57.396Z,99587.97
2022-09-18T22:59:25.999Z,99588.56
2022-09-18T23:01:56.608Z,99590.50
2022-09-18T23:04:25.127Z,99591.25
2022-09-18T23:06:52.296Z,99599.72
2022-09-18T23:09:19.669Z,99594.97
2022-09-18T23:11:47.716Z,99599.06
2022-09-18T23:14:16.198Z,99614.41
2022-09-18T23:16:43.011Z,99622.81
2022-09-18T23:19:14.099Z,99613.50
2022-09-18T23:21:40.938Z,99610.19
2022-09-18T23:24:09.271Z,99577.31
2022-09-18T23:26:38.285Z,99569.41
2022-09-18T23:29:06.983Z,99565.69
2022-09-18T23:31:36.156Z,99572.47
2022-09-18T23:34:04.275Z,99560.34
2022-09-18T23:36:32.108Z,99559.31
2022-09-18T23:39:00.113Z,99577.56
2022-09-18T23:41:27.620Z,99602.91
2022-09-18T23:43:54.766Z,99649.56
2022-09-18T23:46:25.260Z,99665.09
2022-09-18T23:48:55.458Z,99669.84
2022-09-18T23:51:27.001Z,99664.88
2022-09-18T23:53:55.375Z,99689.47
2022-09-18T23:56:23.795Z,99688.44
2022-09-18T23:58:54.759Z,99694.16
